Time;durP1;ratioP1;P1;durP2;ratioP2;P2;SDS_P1;SDS_P2;PMS_P1;PMS_P2;Temp;Humidity;BMP_temperature;BMP_pressure;BME280_temperature;BME280_humidity;BME280_pressure;Samples;Min_cycle;Max_cycle;Signal;HPM_P1;HPM_P2
2022/02/10 00:03:59;;;;;;;13.03;10.83;;;;;;;;;;5051937;28;20225;-66
2022/02/10 00:15:24;;;;;;;16.83;11.73;;;;;;;;;;5096530;28;20231;-66
2022/02/10 00:18:02;;;;;;;13.57;11.70;;;;;;;;;;5096156;28;20193;-65
2022/02/10 00:20:35;;;;;;;14.33;11.17;;;;;;;;;;5096866;28;20514;-65
2022/02/10 00:23:23;;;;;;;14.77;11.00;;;;;;;;;;5096572;28;20470;-65
2022/02/10 00:34:18;;;;;;;16.48;11.70;;;;;;;;;;5096163;28;20605;-66
2022/02/10 00:36:56;;;;;;;12.93;11.45;;;;;;;;;;5095971;28;20193;-66
2022/02/10 00:39:40;;;;;;;13.60;11.38;;;;;;;;;;5096555;28;20224;-65
2022/02/10 00:42:07;;;;;;;12.18;10.98;;;;;;;;;;5096141;28;20210;-65
2022/02/10 00:44:35;;;;;;;16.63;11.70;;;;;;;;;;5096187;28;20280;-66
2022/02/10 00:47:02;;;;;;;16.48;12.30;;;;;;;;;;5095735;28;20197;-66
2022/02/10 00:49:30;;;;;;;13.20;10.98;;;;;;;;;;5095646;28;20292;-65
2022/02/10 00:51:58;;;;;;;13.13;10.82;;;;;;;;;;5095947;28;20201;-66
2022/02/10 00:54:26;;;;;;;13.05;10.95;;;;;;;;;;5095717;28;20661;-66
2022/02/10 00:56:56;;;;;;;12.77;11.07;;;;;;;;;;5095694;28;20231;-66
2022/02/10 00:59:34;;;;;;;12.27;10.25;;;;;;;;;;5095769;28;20657;-67
2022/02/10 01:02:34;;;;;;;12.30;10.10;;;;;;;;;;5096335;28;20235;-65
2022/02/10 01:10:46;;;;;;;18.05;11.88;;;;;;;;;;5095677;28;20637;-66
2022/02/10 01:13:28;;;;;;;11.13;9.93;;;;;;;;;;5095582;28;20185;-66
2022/02/10 01:24:34;;;;;;;13.65;9.93;;;;;;;;;;5095628;28;20398;-66
2022/02/10 01:29:47;;;;;;;14.73;10.20;;;;;;;;;;5095278;28;20461;-65
2022/02/10 01:32:15;;;;;;;13.73;10.10;;;;;;;;;;5095157;28;20535;-65
2022/02/10 01:34:47;;;;;;;18.25;11.23;;;;;;;;;;5094871;28;20535;-66
2022/02/10 01:37:16;;;;;;;10.70;9.30;;;;;;;;;;5095939;28;20185;-66
2022/02/10 01:39:48;;;;;;;12.65;9.73;;;;;;;;;;5094698;28;20535;-65
2022/02/10 02:04:22;;;;;;;12.20;10.00;;;;;;;;;;5094738;28;20220;-65
2022/02/10 02:06:52;;;;;;;17.20;9.88;;;;;;;;;;5094683;28;20620;-65
2022/02/10 02:09:21;;;;;;;15.32;10.77;;;;;;;;;;5094712;28;20252;-65
2022/02/10 02:11:52;;;;;;;16.70;11.68;;;;;;;;;;5094541;28;20192;-65
2022/02/10 02:14:21;;;;;;;17.30;8.85;;;;;;;;;;5094803;28;20189;-65
2022/02/10 02:16:48;;;;;;;15.85;10.10;;;;;;;;;;5094044;28;20254;-65
2022/02/10 02:19:16;;;;;;;12.10;9.57;;;;;;;;;;5094446;28;20204;-66
2022/02/10 02:21:43;;;;;;;13.45;10.75;;;;;;;;;;5094280;28;20519;-66
2022/02/10 02:24:15;;;;;;;12.23;9.90;;;;;;;;;;5094161;28;20220;-66
2022/02/10 02:26:43;;;;;;;12.52;9.63;;;;;;;;;;5093959;28;20185;-66
2022/02/10 02:29:12;;;;;;;20.23;11.03;;;;;;;;;;5094535;28;20201;-65
2022/02/10 02:31:44;;;;;;;11.18;9.98;;;;;;;;;;5093847;28;20480;-66
2022/02/10 03:04:52;;;;;;;16.93;12.33;;;;;;;;;;5093749;28;20184;-66
2022/02/10 03:07:32;;;;;;;25.60;11.90;;;;;;;;;;5093688;28;20495;-65
2022/02/10 03:10:17;;;;;;;17.63;11.98;;;;;;;;;;5093678;28;20235;-65
2022/02/10 03:12:45;;;;;;;18.50;12.07;;;;;;;;;;5093765;28;20204;-65
2022/02/10 03:15:20;;;;;;;19.40;11.90;;;;;;;;;;5093203;28;20197;-66
2022/02/10 03:17:57;;;;;;;16.03;12.43;;;;;;;;;;5094184;28;20181;-66
2022/02/10 03:20:38;;;;;;;16.88;12.27;;;;;;;;;;5097369;28;20539;-65
2022/02/10 04:04:59;;;;;;;26.38;15.23;;;;;;;;;;5096737;28;20887;-66
2022/02/10 04:10:35;;;;;;;20.58;14.80;;;;;;;;;;5076485;28;20182;-65
2022/02/10 04:13:12;;;;;;;18.45;14.70;;;;;;;;;;5076846;28;20217;-66
2022/02/10 04:15:45;;;;;;;23.23;16.83;;;;;;;;;;5077097;28;20569;-65
2022/02/10 04:18:57;;;;;;;23.02;15.13;;;;;;;;;;5076597;28;20433;-65
2022/02/10 04:21:37;;;;;;;18.60;14.57;;;;;;;;;;5076183;28;20609;-65
2022/02/10 04:24:17;;;;;;;26.23;15.80;;;;;;;;;;5076753;28;20225;-65
2022/02/10 04:26:54;;;;;;;19.50;14.80;;;;;;;;;;5076627;28;20206;-65
2022/02/10 04:29:42;;;;;;;20.00;14.80;;;;;;;;;;5075386;28;20928;-65
2022/02/10 04:43:49;;;;;;;26.23;15.82;;;;;;;;;;5075938;28;20232;-66
2022/02/10 04:57:54;;;;;;;22.05;15.25;;;;;;;;;;5063146;28;20236;-65
2022/02/10 05:00:36;;;;;;;25.40;16.25;;;;;;;;;;5075899;28;20182;-66
2022/02/10 05:03:30;;;;;;;23.13;16.80;;;;;;;;;;5075100;28;20213;-66
2022/02/10 05:06:52;;;;;;;20.63;16.40;;;;;;;;;;5084328;28;20229;-65
2022/02/10 05:15:36;;;;;;;23.92;16.42;;;;;;;;;;5096300;28;20276;-65
2022/02/10 05:23:53;;;;;;;23.23;17.20;;;;;;;;;;5087850;28;20690;-66
2022/02/10 05:32:15;;;;;;;27.38;16.80;;;;;;;;;;5115021;28;20198;-66
2022/02/10 05:34:47;;;;;;;25.73;17.08;;;;;;;;;;5114978;28;20216;-65
2022/02/10 05:37:17;;;;;;;23.33;16.70;;;;;;;;;;5115648;28;20189;-66
2022/02/10 05:39:47;;;;;;;29.08;17.73;;;;;;;;;;5114839;28;20727;-67
2022/02/10 05:45:06;;;;;;;23.52;16.05;;;;;;;;;;5111216;28;20195;-66
2022/02/10 05:47:55;;;;;;;25.48;16.27;;;;;;;;;;5114431;28;20233;-66
2022/02/10 05:51:13;;;;;;;32.08;17.30;;;;;;;;;;5115411;28;20189;-66
2022/02/10 05:56:32;;;;;;;22.58;16.95;;;;;;;;;;5110729;28;20256;-69
2022/02/10 05:59:26;;;;;;;25.23;16.58;;;;;;;;;;5114684;28;20649;-68
2022/02/10 06:49:17;;;;;;;21.48;14.75;;;;;;;;;;5114348;28;20536;-68
2022/02/10 06:51:51;;;;;;;24.58;17.58;;;;;;;;;;5113678;28;20239;-68
2022/02/10 06:54:26;;;;;;;28.55;16.10;;;;;;;;;;5114228;28;20188;-68
2022/02/10 06:57:24;;;;;;;26.85;16.42;;;;;;;;;;5114197;28;20556;-68
2022/02/10 07:03:00;;;;;;;21.92;16.50;;;;;;;;;;5113712;28;20191;-67
2022/02/10 07:05:45;;;;;;;26.08;17.25;;;;;;;;;;5113899;28;20224;-67
2022/02/10 07:08:30;;;;;;;31.05;17.52;;;;;;;;;;5113693;28;20180;-68
2022/02/10 07:14:16;;;;;;;31.55;17.50;;;;;;;;;;5113484;28;20200;-68
2022/02/10 07:17:13;;;;;;;27.67;19.58;;;;;;;;;;5114109;28;20542;-68
2022/02/10 07:47:40;;;;;;;29.10;18.95;;;;;;;;;;5113516;28;20222;-68
2022/02/10 07:50:34;;;;;;;26.48;18.08;;;;;;;;;;5113369;28;20226;-67
2022/02/10 07:56:23;;;;;;;26.52;17.85;;;;;;;;;;5031046;28;20195;-67
2022/02/10 08:57:21;;;;;;;37.58;21.08;;;;;;;;;;5115886;28;20267;-68
2022/02/10 09:00:04;;;;;;;30.92;20.60;;;;;;;;;;5116655;28;20250;-68
2022/02/10 09:03:06;;;;;;;31.45;21.83;;;;;;;;;;5116133;28;20187;-68
2022/02/10 09:05:47;;;;;;;37.10;21.60;;;;;;;;;;5116361;28;20303;-68
2022/02/10 09:17:11;;;;;;;34.60;20.55;;;;;;;;;;5101285;28;20196;-68
2022/02/10 09:55:48;;;;;;;26.90;17.70;;;;;;;;;;5115095;28;20590;-67
2022/02/10 09:58:43;;;;;;;11.73;8.20;;;;;;;;;;5114905;28;20199;-68
2022/02/10 10:01:16;;;;;;;13.43;10.07;;;;;;;;;;5115050;28;20184;-68
2022/02/10 10:03:53;;;;;;;9.55;7.30;;;;;;;;;;5115250;28;20264;-69
2022/02/10 10:06:39;;;;;;;10.00;7.28;;;;;;;;;;5114649;28;20325;-67
2022/02/10 10:09:22;;;;;;;5.32;4.00;;;;;;;;;;5114957;28;20183;-68
2022/02/10 10:12:21;;;;;;;5.10;4.00;;;;;;;;;;5114648;28;20231;-68
2022/02/10 10:15:12;;;;;;;8.77;3.70;;;;;;;;;;5114957;28;20191;-68
2022/02/10 10:18:04;;;;;;;4.78;4.28;;;;;;;;;;5115283;28;20211;-68
2022/02/10 10:20:45;;;;;;;5.32;3.67;;;;;;;;;;5114488;28;20632;-68
2022/02/10 10:23:38;;;;;;;4.15;3.45;;;;;;;;;;5114839;28;20192;-68
2022/02/10 10:26:37;;;;;;;5.05;3.40;;;;;;;;;;5114183;28;20210;-67
2022/02/10 10:51:39;;;;;;;7.95;3.65;;;;;;;;;;5111524;28;20668;-68
2022/02/10 10:54:16;;;;;;;6.18;3.33;;;;;;;;;;5114612;28;20191;-67
2022/02/10 10:56:45;;;;;;;4.90;3.40;;;;;;;;;;5114031;28;20184;-68
2022/02/10 11:38:45;;;;;;;10.43;6.22;;;;;;;;;;5093957;28;20180;-68
2022/02/10 11:41:33;;;;;;;8.68;3.53;;;;;;;;;;5097200;28;20209;-68
2022/02/10 12:34:03;;;;;;;3.95;3.00;;;;;;;;;;5063791;28;20673;-68
2022/02/10 13:24:30;;;;;;;5.03;3.35;;;;;;;;;;5075188;28;20591;-68
2022/02/10 14:11:55;;;;;;;3.65;2.50;;;;;;;;;;5074242;28;20231;-67
2022/02/10 14:14:18;;;;;;;7.32;3.28;;;;;;;;;;5073857;28;20198;-68
2022/02/10 14:16:50;;;;;;;4.78;3.30;;;;;;;;;;5074245;28;20190;-69
2022/02/10 14:19:28;;;;;;;5.85;3.40;;;;;;;;;;5074636;28;20198;-67
2022/02/10 14:22:05;;;;;;;8.07;4.25;;;;;;;;;;5075587;28;20196;-68
2022/02/10 14:27:20;;;;;;;4.60;3.03;;;;;;;;;;5074380;28;20202;-69
2022/02/10 14:29:47;;;;;;;5.00;3.60;;;;;;;;;;5074411;28;20229;-68
2022/02/10 14:32:17;;;;;;;3.25;2.50;;;;;;;;;;5074198;28;20458;-68
2022/02/10 14:34:45;;;;;;;6.40;2.50;;;;;;;;;;5073594;28;20331;-69
2022/02/10 14:37:24;;;;;;;9.68;3.03;;;;;;;;;;5074145;28;20277;-68
2022/02/10 14:40:00;;;;;;;7.10;4.43;;;;;;;;;;5074090;28;20193;-68
2022/02/10 15:33:14;;;;;;;5.22;3.10;;;;;;;;;;5072633;28;20196;-67
2022/02/10 15:49:45;;;;;;;6.45;3.17;;;;;;;;;;5072859;28;20235;-67
2022/02/10 15:52:38;;;;;;;4.05;3.03;;;;;;;;;;5072699;28;20201;-68
2022/02/10 16:12:20;;;;;;;7.53;3.33;;;;;;;;;;5072945;28;20567;-67
2022/02/10 16:14:57;;;;;;;5.85;3.72;;;;;;;;;;5072243;28;20196;-67
2022/02/10 16:17:26;;;;;;;5.55;3.05;;;;;;;;;;5072843;28;20220;-67
2022/02/10 16:19:55;;;;;;;6.90;3.33;;;;;;;;;;5073237;28;20558;-68
2022/02/10 16:22:27;;;;;;;4.18;3.33;;;;;;;;;;5073207;28;20602;-67
2022/02/10 16:24:56;;;;;;;8.82;4.32;;;;;;;;;;5072196;28;20916;-68
2022/02/10 16:27:26;;;;;;;7.53;4.45;;;;;;;;;;5072999;28;20205;-67
2022/02/10 16:30:00;;;;;;;9.18;4.28;;;;;;;;;;5072974;28;20224;-67
2022/02/10 16:32:27;;;;;;;7.30;4.00;;;;;;;;;;5072603;28;20193;-67
2022/02/10 16:34:56;;;;;;;7.88;3.63;;;;;;;;;;5073093;28;20296;-67
2022/02/10 16:37:24;;;;;;;5.50;3.15;;;;;;;;;;5075962;28;20672;-67
2022/02/10 16:39:51;;;;;;;5.15;4.03;;;;;;;;;;5076582;28;20232;-67
2022/02/10 16:42:18;;;;;;;7.15;3.55;;;;;;;;;;5076376;28;20230;-67
2022/02/10 16:44:47;;;;;;;8.02;4.32;;;;;;;;;;5076218;28;20664;-66
2022/02/10 16:47:14;;;;;;;7.20;4.45;;;;;;;;;;5076841;28;20197;-67
2022/02/10 16:49:46;;;;;;;13.38;4.93;;;;;;;;;;5076464;28;20759;-67
2022/02/10 16:52:19;;;;;;;6.22;4.35;;;;;;;;;;5076214;28;20674;-67
2022/02/10 16:54:49;;;;;;;6.45;3.97;;;;;;;;;;5076085;28;20216;-67
2022/02/10 16:57:25;;;;;;;6.32;3.40;;;;;;;;;;5076799;28;20566;-67
2022/02/10 17:00:05;;;;;;;7.57;4.45;;;;;;;;;;5076091;28;20184;-67
2022/02/10 17:02:52;;;;;;;8.95;4.53;;;;;;;;;;5076270;28;20185;-67
2022/02/10 17:05:34;;;;;;;6.38;4.28;;;;;;;;;;5076364;28;20185;-67
2022/02/10 17:19:26;;;;;;;8.88;4.28;;;;;;;;;;5075211;28;20530;-67
2022/02/10 17:27:25;;;;;;;8.48;5.32;;;;;;;;;;5075977;28;20321;-68
2022/02/10 17:33:03;;;;;;;13.25;6.43;;;;;;;;;;5013755;28;20613;-67
2022/02/10 17:35:47;;;;;;;7.68;5.60;;;;;;;;;;5066879;28;20258;-67
2022/02/10 17:41:40;;;;;;;7.50;5.63;;;;;;;;;;5075421;28;20264;-68
2022/02/10 17:44:20;;;;;;;13.63;5.85;;;;;;;;;;5075337;28;20259;-67
2022/02/10 17:46:58;;;;;;;9.88;7.07;;;;;;;;;;5075083;28;20197;-68
2022/02/10 17:52:16;;;;;;;10.68;6.60;;;;;;;;;;5075179;28;20184;-67
2022/02/10 17:54:44;;;;;;;12.07;6.55;;;;;;;;;;5075715;28;20236;-67
2022/02/10 17:57:14;;;;;;;9.23;6.13;;;;;;;;;;5075444;28;20720;-66
2022/02/10 17:59:41;;;;;;;11.60;6.38;;;;;;;;;;5075200;28;20220;-67
2022/02/10 18:02:09;;;;;;;12.65;6.35;;;;;;;;;;5074890;28;20294;-66
2022/02/10 18:04:36;;;;;;;8.48;5.45;;;;;;;;;;5074725;28;20223;-70
2022/02/10 18:07:04;;;;;;;10.70;6.57;;;;;;;;;;5074733;28;20239;-68
2022/02/10 18:15:03;;;;;;;21.85;11.98;;;;;;;;;;5075289;28;20187;-67
2022/02/10 18:17:34;;;;;;;10.32;6.47;;;;;;;;;;5074887;28;20185;-68
2022/02/10 18:20:06;;;;;;;8.75;6.75;;;;;;;;;;5074476;28;20242;-68
2022/02/10 18:25:42;;;;;;;8.98;4.30;;;;;;;;;;5074927;28;20189;-67
2022/02/10 19:07:33;;;;;;;12.75;4.50;;;;;;;;;;5073668;28;20201;-68
2022/02/10 19:10:01;;;;;;;8.95;5.80;;;;;;;;;;5073568;28;20217;-69
2022/02/10 19:12:41;;;;;;;8.75;4.97;;;;;;;;;;5072092;28;20604;-74
2022/02/10 19:15:13;;;;;;;6.07;5.47;;;;;;;;;;5073327;28;20185;-71
2022/02/10 19:17:42;;;;;;;9.35;6.00;;;;;;;;;;5073203;28;20187;-71
2022/02/10 19:20:10;;;;;;;11.70;5.47;;;;;;;;;;5073537;28;20243;-72
2022/02/10 19:22:40;;;;;;;14.75;6.55;;;;;;;;;;5073194;28;20200;-71
2022/02/10 19:25:08;;;;;;;8.38;6.75;;;;;;;;;;5072747;28;20746;-72
2022/02/10 19:27:36;;;;;;;15.45;7.28;;;;;;;;;;5073477;28;20208;-71
2022/02/10 19:30:06;;;;;;;13.35;6.97;;;;;;;;;;5073287;28;20218;-74
2022/02/10 19:32:33;;;;;;;15.43;6.63;;;;;;;;;;5073221;28;20711;-74
2022/02/10 19:35:02;;;;;;;15.27;6.75;;;;;;;;;;5073244;28;20201;-69
2022/02/10 19:37:31;;;;;;;9.07;6.00;;;;;;;;;;5073444;28;20192;-69
2022/02/10 19:40:00;;;;;;;10.25;7.30;;;;;;;;;;5072889;28;20201;-71
2022/02/10 19:42:30;;;;;;;9.55;7.80;;;;;;;;;;5073352;28;20554;-70
2022/02/10 19:45:00;;;;;;;16.27;7.82;;;;;;;;;;5073401;28;20182;-70
2022/02/10 19:47:27;;;;;;;14.70;8.00;;;;;;;;;;5072825;28;20200;-70
2022/02/10 19:49:56;;;;;;;9.95;7.53;;;;;;;;;;5073223;28;20665;-70
2022/02/10 19:52:25;;;;;;;12.48;8.75;;;;;;;;;;5073201;28;20190;-72
2022/02/10 19:54:56;;;;;;;12.60;7.57;;;;;;;;;;5072508;28;20658;-74
2022/02/10 19:57:25;;;;;;;12.68;8.20;;;;;;;;;;5072897;28;20187;-72
2022/02/10 19:59:53;;;;;;;12.52;10.10;;;;;;;;;;5072826;28;20205;-73
2022/02/10 20:02:22;;;;;;;11.68;8.63;;;;;;;;;;5072728;28;20205;-72
2022/02/10 20:04:50;;;;;;;14.43;9.45;;;;;;;;;;5071889;28;20231;-70
2022/02/10 20:07:17;;;;;;;13.90;8.82;;;;;;;;;;5072747;28;20539;-71
2022/02/10 20:09:47;;;;;;;22.02;10.25;;;;;;;;;;5072289;28;20261;-72
2022/02/10 20:12:14;;;;;;;16.13;9.27;;;;;;;;;;5075644;28;20236;-72
2022/02/10 20:14:42;;;;;;;18.33;9.70;;;;;;;;;;5076598;28;20196;-71
2022/02/10 20:17:09;;;;;;;11.95;8.80;;;;;;;;;;5076518;28;20196;-73
2022/02/10 20:19:36;;;;;;;12.40;8.68;;;;;;;;;;5076573;28;20235;-76
2022/02/10 20:22:04;;;;;;;14.00;9.40;;;;;;;;;;5076837;28;20208;-72
2022/02/10 20:24:31;;;;;;;20.35;9.52;;;;;;;;;;5076263;28;20287;-74
2022/02/10 20:26:59;;;;;;;15.52;9.52;;;;;;;;;;5076481;28;20199;-74
2022/02/10 20:29:27;;;;;;;20.23;10.07;;;;;;;;;;5076490;28;20205;-74
2022/02/10 20:31:54;;;;;;;16.33;9.93;;;;;;;;;;5075979;28;20193;-73
2022/02/10 20:34:23;;;;;;;12.93;9.68;;;;;;;;;;5076529;28;20314;-70
2022/02/10 20:36:50;;;;;;;18.27;10.18;;;;;;;;;;5076379;28;20583;-72
2022/02/10 20:39:24;;;;;;;13.50;8.95;;;;;;;;;;5076305;28;20208;-73
2022/02/10 20:41:54;;;;;;;15.95;8.70;;;;;;;;;;5078587;28;20279;-76
2022/02/10 20:44:23;;;;;;;10.85;7.10;;;;;;;;;;5079609;28;20287;-72
2022/02/10 20:46:51;;;;;;;16.83;6.63;;;;;;;;;;5078457;28;20241;-74
2022/02/10 20:49:19;;;;;;;7.47;5.32;;;;;;;;;;5078923;28;20231;-74
2022/02/10 20:51:47;;;;;;;18.40;5.00;;;;;;;;;;5077984;28;20197;-73
2022/02/10 20:54:15;;;;;;;10.63;4.55;;;;;;;;;;5078739;28;20197;-74
2022/02/10 20:56:42;;;;;;;6.13;4.47;;;;;;;;;;5079015;28;20284;-77
2022/02/10 20:59:20;;;;;;;10.40;5.07;;;;;;;;;;5077585;28;20228;-69
2022/02/10 21:01:53;;;;;;;10.80;4.50;;;;;;;;;;5077107;28;20569;-70
2022/02/10 21:04:21;;;;;;;7.13;4.53;;;;;;;;;;5076192;28;20186;-69
2022/02/10 21:06:56;;;;;;;6.82;3.55;;;;;;;;;;5076412;28;20259;-68
2022/02/10 21:09:35;;;;;;;5.25;3.30;;;;;;;;;;5076055;28;20192;-67
2022/02/10 21:12:03;;;;;;;6.30;3.40;;;;;;;;;;5076742;28;20245;-68
2022/02/10 21:14:30;;;;;;;5.30;3.80;;;;;;;;;;5075730;28;20196;-68
2022/02/10 21:17:05;;;;;;;12.38;4.53;;;;;;;;;;5076316;28;20735;-68
2022/02/10 21:19:33;;;;;;;6.57;4.05;;;;;;;;;;5076579;28;20206;-70
2022/02/10 21:22:05;;;;;;;5.95;3.63;;;;;;;;;;5075099;28;20195;-68
2022/02/10 21:24:34;;;;;;;9.15;3.58;;;;;;;;;;5076014;28;20277;-68
2022/02/10 21:27:24;;;;;;;6.53;3.80;;;;;;;;;;5076076;28;20201;-68
2022/02/10 21:29:55;;;;;;;11.13;5.80;;;;;;;;;;5075364;28;20213;-68
2022/02/10 21:32:30;;;;;;;5.80;4.75;;;;;;;;;;5076021;28;20185;-68
2022/02/10 21:35:19;;;;;;;7.57;5.20;;;;;;;;;;5076303;28;20670;-68
2022/02/10 21:37:51;;;;;;;8.07;4.13;;;;;;;;;;5075985;28;20188;-68
2022/02/10 21:54:39;;;;;;;9.05;3.28;;;;;;;;;;5074317;28;20233;-68
2022/02/10 21:57:27;;;;;;;9.88;3.65;;;;;;;;;;5074242;28;20276;-68
2022/02/10 22:00:25;;;;;;;11.90;3.05;;;;;;;;;;5074096;28;20188;-68
2022/02/10 22:09:08;;;;;;;11.05;2.58;;;;;;;;;;5046439;28;20606;-67
2022/02/10 22:11:57;;;;;;;10.13;2.97;;;;;;;;;;5075515;28;20570;-67
2022/02/10 22:17:29;;;;;;;4.70;3.13;;;;;;;;;;5074801;28;20197;-67
2022/02/10 22:19:59;;;;;;;6.05;3.00;;;;;;;;;;5074819;28;20189;-67
2022/02/10 22:22:35;;;;;;;6.65;2.83;;;;;;;;;;5075037;28;20275;-68
2022/02/10 22:25:06;;;;;;;5.50;2.83;;;;;;;;;;5074988;28;20189;-68
2022/02/10 22:27:38;;;;;;;4.75;2.88;;;;;;;;;;5074587;28;20652;-68
2022/02/10 22:30:15;;;;;;;8.50;4.32;;;;;;;;;;5074641;28;20208;-67
2022/02/10 22:32:49;;;;;;;4.53;3.05;;;;;;;;;;5074119;28;20185;-68
2022/02/10 22:35:16;;;;;;;11.45;3.97;;;;;;;;;;5074952;28;20192;-67
2022/02/10 22:37:46;;;;;;;4.82;3.35;;;;;;;;;;5074482;28;20233;-68
2022/02/10 22:40:37;;;;;;;4.75;2.88;;;;;;;;;;5074698;28;20193;-67
2022/02/10 22:43:04;;;;;;;8.82;2.80;;;;;;;;;;5074962;28;20592;-67
2022/02/10 22:45:32;;;;;;;14.55;3.70;;;;;;;;;;5074614;28;20195;-68
2022/02/10 22:47:59;;;;;;;5.93;3.38;;;;;;;;;;5074125;28;20239;-67
2022/02/10 22:50:26;;;;;;;6.47;3.20;;;;;;;;;;5073895;28;20218;-67
2022/02/10 22:52:55;;;;;;;9.23;3.15;;;;;;;;;;5074008;28;20554;-66
2022/02/10 22:55:22;;;;;;;9.55;3.28;;;;;;;;;;5074137;28;20282;-66
2022/02/10 22:57:50;;;;;;;3.95;3.15;;;;;;;;;;5074284;28;20259;-67
2022/02/10 23:00:27;;;;;;;12.35;4.35;;;;;;;;;;5074039;28;20201;-65
2022/02/10 23:02:55;;;;;;;5.68;3.50;;;;;;;;;;5074213;28;20185;-66
2022/02/10 23:05:23;;;;;;;4.45;2.92;;;;;;;;;;5073405;28;20189;-66
2022/02/10 23:07:55;;;;;;;11.77;3.90;;;;;;;;;;5073901;28;20226;-66
2022/02/10 23:10:42;;;;;;;7.57;3.28;;;;;;;;;;5074259;28;20555;-66
2022/02/10 23:13:09;;;;;;;7.85;2.95;;;;;;;;;;5073892;28;20189;-66
2022/02/10 23:15:38;;;;;;;8.10;3.40;;;;;;;;;;5073405;28;20223;-67
2022/02/10 23:18:06;;;;;;;6.72;3.53;;;;;;;;;;5073459;28;20247;-67
2022/02/10 23:20:34;;;;;;;7.22;3.25;;;;;;;;;;5073763;28;20281;-66
2022/02/10 23:23:03;;;;;;;13.85;5.07;;;;;;;;;;5074356;28;20251;-66
2022/02/10 23:25:32;;;;;;;6.25;4.32;;;;;;;;;;5073423;28;20286;-67
2022/02/10 23:27:59;;;;;;;7.22;4.13;;;;;;;;;;5073562;28;20546;-67
2022/02/10 23:30:27;;;;;;;10.05;4.90;;;;;;;;;;5072876;28;20248;-67
2022/02/10 23:32:58;;;;;;;10.02;5.40;;;;;;;;;;5074061;28;20283;-67
2022/02/10 23:38:07;;;;;;;10.48;7.03;;;;;;;;;;5039935;28;20233;-67
2022/02/10 23:40:49;;;;;;;13.68;6.57;;;;;;;;;;5073092;28;20681;-66
2022/02/10 23:43:18;;;;;;;8.82;6.85;;;;;;;;;;5073656;28;20191;-67
2022/02/10 23:45:45;;;;;;;12.73;8.70;;;;;;;;;;5073421;28;20201;-67
2022/02/10 23:48:12;;;;;;;9.43;6.80;;;;;;;;;;5073864;28;20256;-67
2022/02/10 23:50:40;;;;;;;9.93;7.20;;;;;;;;;;5073765;28;20204;-67
2022/02/10 23:53:07;;;;;;;10.63;6.55;;;;;;;;;;5073468;28;20195;-67
2022/02/10 23:55:39;;;;;;;9.65;5.80;;;;;;;;;;5073583;28;20227;-67
2022/02/10 23:58:18;;;;;;;13.38;8.63;;;;;;;;;;5073138;28;20643;-66
